Time;durP1;ratioP1;P1;durP2;ratioP2;P2;SDS_P1;SDS_P2;PMS_P1;PMS_P2;Temp;Humidity;BMP_temperature;BMP_pressure;BME280_temperature;BME280_humidity;BME280_pressure;Samples;Min_cycle;Max_cycle;Signal;HPM_P1;HPM_P2
2022/11/12 00:01:24;;;;;;;12.58;8.33;;;;;;;8.70;100.00;99306.45;1799434;79;20930;-60
2022/11/12 00:04:10;;;;;;;18.40;9.25;;;;;;;8.73;100.00;99293.13;1799431;79;20888;-59
2022/11/12 00:06:55;;;;;;;14.15;9.38;;;;;;;8.74;100.00;99290.20;1799293;79;20931;-59
2022/11/12 00:09:40;;;;;;;11.88;7.47;;;;;;;8.76;100.00;99299.32;1799652;79;21374;-60
2022/11/12 00:12:25;;;;;;;12.37;8.08;;;;;;;8.72;100.00;99297.66;1799580;79;21449;-60
2022/11/12 00:15:11;;;;;;;13.13;7.17;;;;;;;8.73;100.00;99303.81;1799270;79;20934;-60
2022/11/12 00:17:56;;;;;;;13.45;7.10;;;;;;;8.71;100.00;99301.40;1799443;79;28718;-60
2022/11/12 00:20:43;;;;;;;11.22;6.55;;;;;;;8.71;100.00;99297.91;1799279;79;20926;-59
2022/11/12 00:23:29;;;;;;;11.22;6.50;;;;;;;8.71;99.94;99305.92;1774900;79;21230;-59
2022/11/12 00:26:14;;;;;;;12.50;7.53;;;;;;;8.73;99.46;99301.95;1799357;79;20973;-58
2022/11/12 00:28:59;;;;;;;13.48;7.03;;;;;;;8.77;99.08;99304.93;1764413;81;20880;-59
2022/11/12 00:31:45;;;;;;;13.90;6.40;;;;;;;8.74;98.93;99300.89;1734259;82;21435;-59
2022/11/12 00:34:30;;;;;;;10.45;5.95;;;;;;;8.69;98.46;99299.47;1764520;81;20884;-59
2022/11/12 00:37:17;;;;;;;13.80;6.47;;;;;;;8.66;97.89;99295.17;1734356;82;21841;-59
2022/11/12 00:40:04;;;;;;;10.50;6.47;;;;;;;8.66;97.81;99287.97;1799371;79;21509;-60
2022/11/12 00:42:51;;;;;;;10.55;6.10;;;;;;;8.67;97.60;99295.43;1799465;79;20855;-59
2022/11/12 00:45:36;;;;;;;10.82;6.90;;;;;;;8.67;97.28;99297.58;1764426;81;20920;-60
2022/11/12 00:48:21;;;;;;;10.18;6.25;;;;;;;8.67;96.90;99295.43;1734228;82;21026;-59
2022/11/12 00:51:06;;;;;;;15.53;6.72;;;;;;;8.63;96.68;99296.47;1799572;79;21160;-59
2022/11/12 00:53:51;;;;;;;11.43;5.90;;;;;;;8.58;96.60;99296.39;1799654;79;20903;-58
2022/11/12 00:56:38;;;;;;;15.78;6.58;;;;;;;8.55;96.58;99293.42;1799460;79;20879;-60
2022/11/12 00:59:23;;;;;;;12.78;7.15;;;;;;;8.49;96.71;99283.70;1764566;81;20999;-60
2022/11/12 01:02:08;;;;;;;10.40;7.22;;;;;;;8.47;96.67;99289.81;1734275;82;20876;-61
2022/11/12 01:04:54;;;;;;;11.00;6.50;;;;;;;8.48;96.63;99282.10;1799555;79;26025;-60
2022/11/12 01:07:39;;;;;;;15.05;6.80;;;;;;;8.47;96.48;99281.80;1799491;79;21446;-59
2022/11/12 01:10:24;;;;;;;10.82;6.22;;;;;;;8.46;96.40;99272.98;1764567;81;20919;-60
2022/11/12 01:13:09;;;;;;;13.03;7.42;;;;;;;8.45;96.20;99281.25;1734195;82;21538;-60
2022/11/12 01:15:54;;;;;;;14.38;7.35;;;;;;;8.44;96.13;99286.30;1799800;79;21500;-60
2022/11/12 01:18:42;;;;;;;16.97;8.13;;;;;;;8.44;96.13;99281.77;1799332;79;21414;-59
2022/11/12 01:21:30;;;;;;;13.80;8.38;;;;;;;8.45;95.83;99278.06;1810186;79;20892;-59
2022/11/12 01:24:16;;;;;;;12.95;8.23;;;;;;;8.43;95.65;99284.70;1785338;80;20982;-60
2022/11/12 01:27:01;;;;;;;13.53;8.23;;;;;;;8.41;95.70;99286.25;1810259;79;20891;-59
2022/11/12 01:29:47;;;;;;;11.68;8.18;;;;;;;8.39;95.66;99280.88;1785602;80;26009;-60
2022/11/12 01:32:36;;;;;;;14.13;8.05;;;;;;;8.39;95.65;99288.88;1810392;79;21183;-59
2022/11/12 01:35:21;;;;;;;18.20;8.63;;;;;;;8.38;95.64;99284.61;1785393;80;20923;-59
2022/11/12 01:38:06;;;;;;;14.05;8.93;;;;;;;8.38;95.52;99285.95;1810524;79;20979;-60
2022/11/12 01:40:51;;;;;;;15.68;8.80;;;;;;;8.35;95.55;99286.43;1785551;80;20908;-60
2022/11/12 01:43:36;;;;;;;16.60;8.70;;;;;;;8.33;95.42;99289.88;1810252;79;20921;-59
2022/11/12 01:46:26;;;;;;;13.72;8.45;;;;;;;8.33;95.44;99300.55;1785550;80;21098;-60
2022/11/12 01:49:43;;;;;;;15.45;9.25;;;;;;;8.31;95.40;99298.66;1810176;79;20867;-59
2022/11/12 01:52:35;;;;;;;15.53;10.25;;;;;;;8.28;95.37;99300.47;1785556;80;20931;-59
2022/11/12 01:55:27;;;;;;;13.72;9.43;;;;;;;8.22;95.43;99295.02;1810288;79;21457;-59
2022/11/12 01:58:14;;;;;;;15.55;9.73;;;;;;;8.18;95.56;99299.23;1785426;80;20978;-59
2022/11/12 02:01:01;;;;;;;17.00;9.60;;;;;;;8.15;95.60;99289.03;1810147;79;21219;-60
2022/11/12 02:03:45;;;;;;;15.10;9.53;;;;;;;8.15;95.75;99299.70;1759744;80;20982;-59
2022/11/12 02:06:30;;;;;;;14.55;10.03;;;;;;;8.13;95.79;99290.33;1810265;79;20899;-60
2022/11/12 02:09:16;;;;;;;16.12;10.25;;;;;;;8.10;95.94;99286.83;1785509;80;26390;-60
2022/11/12 02:12:04;;;;;;;15.83;9.08;;;;;;;8.07;95.99;99286.79;1810191;79;21069;-59
2022/11/12 02:14:49;;;;;;;15.13;9.88;;;;;;;8.05;96.06;99288.89;1759407;80;21118;-59
2022/11/12 02:17:36;;;;;;;13.53;10.20;;;;;;;8.02;96.12;99292.04;1810125;79;20946;-60
2022/11/12 02:20:21;;;;;;;18.93;10.10;;;;;;;7.98;96.18;99292.77;1789405;80;20939;-59
2022/11/12 02:23:08;;;;;;;19.92;10.03;;;;;;;7.94;96.34;99292.42;1816756;79;21398;-59
2022/11/12 02:25:53;;;;;;;17.30;10.68;;;;;;;7.90;96.55;99292.63;1802809;79;21096;-58
2022/11/12 02:28:38;;;;;;;18.25;10.23;;;;;;;7.88;96.68;99290.73;1816881;79;22004;-59
2022/11/12 02:31:23;;;;;;;14.78;10.23;;;;;;;7.87;96.83;99302.44;1802851;79;21005;-60
2022/11/12 02:34:08;;;;;;;21.02;11.25;;;;;;;7.86;96.97;99302.17;1816978;79;20867;-59
2022/11/12 02:36:53;;;;;;;19.77;11.75;;;;;;;7.87;97.06;99301.11;1802762;79;21025;-60
2022/11/12 02:39:39;;;;;;;18.70;11.83;;;;;;;7.89;97.12;99307.01;1816947;79;20962;-59
2022/11/12 02:42:23;;;;;;;15.45;10.75;;;;;;;7.86;97.10;99312.84;1802743;79;21056;-59
2022/11/12 02:45:09;;;;;;;16.63;10.43;;;;;;;7.84;97.14;99324.28;1816967;79;20934;-58
2022/11/12 02:47:56;;;;;;;16.73;10.78;;;;;;;7.79;97.22;99316.19;1802712;79;20935;-59
2022/11/12 02:50:41;;;;;;;19.98;11.83;;;;;;;7.79;97.40;99314.86;1816898;79;20903;-59
2022/11/12 02:53:26;;;;;;;17.42;11.30;;;;;;;7.78;97.50;99327.08;1803113;79;21451;-59
2022/11/12 02:56:11;;;;;;;19.92;11.48;;;;;;;7.74;97.89;99337.44;1816885;79;21263;-59
2022/11/12 02:58:57;;;;;;;18.40;10.68;;;;;;;7.73;97.86;99332.32;1802672;79;20883;-60
2022/11/12 03:01:42;;;;;;;19.15;11.40;;;;;;;7.72;98.11;99324.87;1816841;79;21481;-60
2022/11/12 03:04:27;;;;;;;19.27;11.35;;;;;;;7.71;98.19;99324.56;1802885;79;20871;-60
2022/11/12 03:07:12;;;;;;;20.80;12.47;;;;;;;7.72;98.38;99330.72;1816851;79;21005;-60
2022/11/12 03:09:57;;;;;;;16.97;11.73;;;;;;;7.74;98.68;99330.77;1802737;79;21219;-61
2022/11/12 03:12:42;;;;;;;18.32;11.60;;;;;;;7.76;98.60;99339.33;1817016;79;21500;-61
2022/11/12 03:15:29;;;;;;;20.80;12.10;;;;;;;7.78;98.65;99342.56;1802569;79;20898;-60
2022/11/12 03:18:14;;;;;;;17.10;11.38;;;;;;;7.81;98.77;99337.28;1816886;79;20915;-61
2022/11/12 03:20:59;;;;;;;19.73;12.20;;;;;;;7.84;98.75;99336.29;1802853;79;20879;-61
2022/11/12 03:23:44;;;;;;;19.57;12.13;;;;;;;7.86;98.63;99342.19;1816993;79;21097;-61
2022/11/12 03:26:29;;;;;;;14.80;11.25;;;;;;;7.89;98.57;99337.69;1802896;79;21648;-60
2022/11/12 03:29:14;;;;;;;15.05;10.95;;;;;;;7.89;98.56;99332.35;1816927;79;21447;-61
2022/11/12 03:31:59;;;;;;;17.48;12.23;;;;;;;7.89;98.63;99328.34;1802836;79;20899;-60
2022/11/12 03:34:45;;;;;;;;;;;;;;;7.90;98.54;99333.98;1819455;79;20969;-60
2022/11/12 03:37:31;;;;;;;19.98;11.97;;;;;;;7.91;98.42;99332.95;1784620;80;21105;-60
2022/11/12 03:40:17;;;;;;;16.70;11.65;;;;;;;7.91;98.39;99329.47;1802550;79;21458;-59
2022/11/12 03:43:02;;;;;;;16.75;11.53;;;;;;;7.89;98.35;99323.02;1816856;79;20966;-60
2022/11/12 03:45:47;;;;;;;18.05;12.25;;;;;;;7.91;98.34;99324.94;1802823;79;20874;-60
2022/11/12 03:48:33;;;;;;;16.35;11.65;;;;;;;7.89;98.31;99316.89;1816820;79;20989;-60
2022/11/12 03:51:20;;;;;;;18.92;12.10;;;;;;;7.89;98.31;99308.34;1802836;79;21094;-61
2022/11/12 03:54:05;;;;;;;20.27;12.18;;;;;;;7.91;98.23;99314.79;1816662;79;20966;-60
2022/11/12 03:56:50;;;;;;;;;;;;;;;7.89;98.28;99311.01;1805276;79;20926;-59
2022/11/12 03:59:36;;;;;;;17.87;13.10;;;;;;;7.88;98.38;99311.27;1802687;79;20110;-60
2022/11/12 04:02:21;;;;;;;18.93;11.83;;;;;;;7.86;98.52;99311.52;1816903;79;20903;-60
2022/11/12 04:08:35;;;;;;;20.08;12.43;;;;;;;7.88;98.69;99326.75;1816591;79;20871;-60
2022/11/12 04:11:20;;;;;;;21.95;12.78;;;;;;;7.87;98.80;99331.79;1802636;79;20882;-59
2022/11/12 04:14:05;;;;;;;21.05;13.08;;;;;;;7.84;98.88;99326.95;1816795;79;20994;-59
2022/11/12 04:23:03;;;;;;;19.95;12.68;;;;;;;7.78;99.63;99350.56;1776669;80;20930;-59
2022/11/12 04:31:56;;;;;;;18.20;12.30;;;;;;;7.77;100.00;99354.30;1776945;80;21355;-60
2022/11/12 04:34:41;;;;;;;19.47;12.77;;;;;;;7.77;100.00;99356.16;1775460;80;21170;-59
2022/11/12 04:37:42;;;;;;;18.65;12.80;;;;;;;7.74;100.00;99357.95;1808761;79;21196;-61
2022/11/12 04:46:34;;;;;;;18.15;12.63;;;;;;;7.79;100.00;99356.20;1808812;79;21482;-59
2022/11/12 04:49:19;;;;;;;23.05;13.40;;;;;;;7.81;100.00;99348.77;1776969;80;21226;-60
2022/11/12 04:52:04;;;;;;;20.47;13.00;;;;;;;7.79;100.00;99348.72;1775466;80;21470;-60
2022/11/12 04:54:50;;;;;;;19.85;11.93;;;;;;;7.78;100.00;99343.90;1808835;79;20864;-59
2022/11/12 04:57:36;;;;;;;23.10;12.98;;;;;;;7.81;100.00;99342.09;1776939;80;21509;-59
2022/11/12 05:00:22;;;;;;;20.35;12.47;;;;;;;7.84;100.00;99343.48;1775229;80;20880;-60
2022/11/12 05:03:06;;;;;;;23.93;14.07;;;;;;;7.85;100.00;99343.75;1808954;79;21226;-60
2022/11/12 05:06:03;;;;;;;24.87;13.98;;;;;;;7.87;100.00;99349.12;1776659;80;21025;-59
2022/11/12 05:08:48;;;;;;;22.62;13.53;;;;;;;7.86;100.00;99356.86;1776706;80;20868;-60
2022/11/12 05:11:33;;;;;;;;;;;;;;;7.86;100.00;99360.86;1811476;79;21453;-59
2022/11/12 05:14:19;;;;;;;23.50;14.40;;;;;;;7.86;100.00;99352.86;1776871;80;20093;-60
2022/11/12 05:17:04;;;;;;;26.27;15.32;;;;;;;7.86;100.00;99351.53;1775558;80;21911;-59
2022/11/12 05:19:49;;;;;;;29.35;16.23;;;;;;;7.85;100.00;99353.90;1808699;79;20899;-59
2022/11/12 05:22:35;;;;;;;32.95;15.85;;;;;;;7.85;100.00;99363.23;1777077;80;20863;-59
2022/11/12 05:25:20;;;;;;;27.07;14.95;;;;;;;7.86;100.00;99359.53;1775464;80;20965;-60
2022/11/12 05:28:05;;;;;;;30.47;16.47;;;;;;;7.87;100.00;99362.47;1809099;79;20887;-60
2022/11/12 05:30:51;;;;;;;23.92;16.65;;;;;;;7.87;100.00;99354.46;1777119;80;21170;-60
2022/11/12 05:33:37;;;;;;;28.42;16.60;;;;;;;7.87;100.00;99354.46;1775128;80;21415;-59
2022/11/12 05:36:22;;;;;;;34.03;17.82;;;;;;;7.87;100.00;99353.13;1808835;79;20903;-60
2022/11/12 05:39:07;;;;;;;33.93;16.97;;;;;;;7.89;100.00;99356.36;1777197;80;20876;-60
2022/11/12 05:41:53;;;;;;;31.85;18.15;;;;;;;7.91;100.00;99355.63;1775323;80;20968;-60
2022/11/12 05:44:39;;;;;;;34.88;17.70;;;;;;;7.92;100.00;99355.89;1808724;79;21093;-59
2022/11/12 05:47:24;;;;;;;32.42;19.62;;;;;;;7.93;100.00;99353.52;1777224;80;21493;-59
2022/11/12 05:50:09;;;;;;;31.87;18.45;;;;;;;7.94;100.00;99359.13;1777303;80;21429;-60
2022/11/12 05:52:55;;;;;;;31.48;17.32;;;;;;;7.96;100.00;99365.02;1808925;79;20966;-60
2022/11/12 05:55:40;;;;;;;27.85;19.20;;;;;;;7.98;100.00;99356.28;1777109;80;20831;-60
2022/11/12 05:58:26;;;;;;;31.65;19.42;;;;;;;7.99;100.00;99365.89;1775425;80;21244;-59
2022/11/12 06:01:11;;;;;;;29.90;19.15;;;;;;;8.01;100.00;99367.78;1808775;79;20928;-59
2022/11/12 06:03:56;;;;;;;33.85;20.20;;;;;;;8.02;100.00;99368.61;1776942;80;20958;-58
2022/11/12 06:06:41;;;;;;;32.03;19.45;;;;;;;8.01;100.00;99378.46;1775620;80;21356;-58
2022/11/12 06:09:27;;;;;;;36.10;19.75;;;;;;;8.00;100.00;99378.19;1808938;79;20876;-58
2022/11/12 06:12:12;;;;;;;36.05;20.43;;;;;;;8.00;100.00;99386.20;1776965;80;21149;-59
2022/11/12 06:14:57;;;;;;;35.52;20.37;;;;;;;8.00;100.00;99388.87;1775231;80;20970;-58
2022/11/12 06:17:42;;;;;;;39.63;21.07;;;;;;;7.99;100.00;99384.56;1809002;79;20916;-59
2022/11/12 06:20:28;;;;;;;37.08;20.05;;;;;;;8.01;100.00;99382.46;1779102;80;26306;-59
2022/11/12 06:23:14;;;;;;;36.55;20.75;;;;;;;8.02;100.00;99387.28;1802823;79;20981;-59
2022/11/12 06:25:59;;;;;;;41.08;22.10;;;;;;;8.03;100.00;99396.92;1813793;79;21200;-60
2022/11/12 06:28:46;;;;;;;39.35;22.52;;;;;;;8.01;100.00;99406.48;1794838;79;21489;-59
2022/11/12 06:31:32;;;;;;;44.03;22.60;;;;;;;8.01;100.00;99413.15;1794958;80;20906;-59
2022/11/12 06:34:17;;;;;;;41.40;22.15;;;;;;;7.98;100.00;99420.31;1795078;80;20907;-60
2022/11/12 06:37:02;;;;;;;48.08;22.93;;;;;;;7.96;100.00;99412.27;1795113;80;20903;-59
2022/11/12 06:39:48;;;;;;;43.35;24.15;;;;;;;7.94;100.00;99415.16;1795302;80;21347;-59
2022/11/12 06:42:33;;;;;;;41.35;23.60;;;;;;;7.95;100.00;99407.97;1795127;80;21512;-59
2022/11/12 06:45:19;;;;;;;46.05;24.07;;;;;;;7.95;100.00;99404.78;1795075;80;25210;-59
2022/11/12 06:48:04;;;;;;;39.53;22.70;;;;;;;7.96;100.00;99406.93;1794883;80;21504;-60
2022/11/12 06:50:49;;;;;;;39.60;24.25;;;;;;;7.98;100.00;99406.98;1795074;80;20844;-59
2022/11/12 06:53:35;;;;;;;42.10;24.45;;;;;;;7.98;100.00;99405.64;1794803;80;20970;-60
2022/11/12 06:56:21;;;;;;;42.67;23.77;;;;;;;7.98;100.00;99401.64;1795121;80;21370;-60
2022/11/12 06:59:06;;;;;;;41.60;22.70;;;;;;;7.99;100.00;99400.58;1794919;80;20934;-60
2022/11/12 07:01:51;;;;;;;45.52;23.12;;;;;;;8.00;100.00;99406.21;1795454;80;21359;-59
2022/11/12 07:04:36;;;;;;;44.13;24.20;;;;;;;7.99;100.00;99407.77;1795088;80;21042;-58
2022/11/12 07:07:22;;;;;;;38.92;23.85;;;;;;;7.98;100.00;99410.98;1795065;80;21254;-59
2022/11/12 07:10:08;;;;;;;47.90;25.12;;;;;;;7.95;100.00;99404.78;1794963;80;20954;-60
2022/11/12 07:12:53;;;;;;;41.75;23.70;;;;;;;7.93;100.00;99407.39;1794910;80;20871;-59
2022/11/12 07:15:39;;;;;;;40.65;23.50;;;;;;;7.95;100.00;99401.30;1795014;80;28367;-59
2022/11/12 07:18:25;;;;;;;33.38;22.42;;;;;;;7.98;100.00;99410.98;1795037;80;20891;-59
2022/11/12 07:21:12;;;;;;;;;;;;;;;8.01;100.00;99411.81;1795665;79;21103;-59
2022/11/12 07:23:57;;;;;;;45.60;25.92;;;;;;;8.00;100.00;99408.88;1793361;80;20127;-59
2022/11/12 07:26:43;;;;;;;41.10;25.70;;;;;;;8.02;100.00;99406.77;1793544;80;20978;-59
2022/11/12 07:29:27;;;;;;;41.67;25.50;;;;;;;8.04;100.00;99415.34;1793608;80;20864;-60
2022/11/12 07:32:12;;;;;;;48.05;25.88;;;;;;;8.06;100.00;99406.58;1793608;80;20970;-59
2022/11/12 07:34:58;;;;;;;46.73;27.17;;;;;;;8.08;100.00;99411.14;1793533;80;21082;-60
2022/11/12 07:37:43;;;;;;;;;;;;;;;8.11;100.00;99412.52;1795990;80;20937;-60
2022/11/12 07:40:29;;;;;;;47.67;27.42;;;;;;;8.10;100.00;99405.03;1793431;80;20138;-59
2022/11/12 07:43:14;;;;;;;47.60;26.93;;;;;;;8.12;100.00;99411.48;1793393;80;20950;-61
2022/11/12 07:46:05;;;;;;;41.00;26.52;;;;;;;8.12;100.00;99411.48;1793561;80;20903;-59
2022/11/12 07:48:50;;;;;;;53.17;28.85;;;;;;;8.12;100.00;99410.97;1793354;80;21057;-59
2022/11/12 07:51:35;;;;;;;45.67;26.93;;;;;;;8.12;100.00;99414.97;1793453;80;20899;-59
2022/11/12 07:54:20;;;;;;;45.77;27.13;;;;;;;8.14;100.00;99418.20;1793615;80;20931;-60
2022/11/12 07:57:06;;;;;;;48.35;27.82;;;;;;;8.18;100.00;99424.67;1793498;80;20934;-60
2022/11/12 07:59:51;;;;;;;45.12;27.52;;;;;;;8.20;100.00;99424.42;1793536;80;20927;-60
2022/11/12 08:02:37;;;;;;;;;;;;;;;8.27;100.00;99436.34;1796051;80;21090;-60
2022/11/12 08:05:21;;;;;;;46.88;27.25;;;;;;;8.33;100.00;99433.52;1793238;80;20142;-59
2022/11/12 08:08:07;;;;;;;;;;;;;;;8.33;100.00;99436.70;1796226;80;40215;-59
2022/11/12 08:10:56;;;;;;;44.65;25.75;;;;;;;8.36;100.00;99436.23;1793388;80;20122;-61
2022/11/12 08:13:42;;;;;;;47.08;25.25;;;;;;;8.41;100.00;99441.66;1793413;80;20852;-61
2022/11/12 08:16:27;;;;;;;53.68;26.57;;;;;;;8.42;100.00;99430.73;1793586;80;21114;-61
2022/11/12 08:19:12;;;;;;;43.87;25.70;;;;;;;8.43;100.00;99439.55;1793330;80;21437;-60
2022/11/12 08:21:57;;;;;;;48.97;24.97;;;;;;;8.44;100.00;99435.81;1793574;79;20930;-60
2022/11/12 08:24:43;;;;;;;40.25;24.15;;;;;;;8.46;100.00;99439.05;1793521;80;20950;-61
2022/11/12 08:27:27;;;;;;;38.30;23.38;;;;;;;8.50;100.00;99444.22;1793400;80;20922;-60
2022/11/12 08:30:13;;;;;;;45.95;25.17;;;;;;;8.50;100.00;99450.34;1793495;80;21407;-59
2022/11/12 08:33:03;;;;;;;45.98;25.02;;;;;;;8.49;100.00;99449.26;1793323;80;20919;-60
2022/11/12 08:35:48;;;;;;;44.25;24.45;;;;;;;8.45;100.00;99440.12;1793367;80;21456;-60
2022/11/12 08:38:34;;;;;;;44.77;24.70;;;;;;;8.45;100.00;99445.45;1793461;80;20934;-60
2022/11/12 08:41:19;;;;;;;43.02;23.98;;;;;;;8.48;100.00;99447.66;1793898;80;21394;-59
2022/11/12 08:44:04;;;;;;;42.17;25.32;;;;;;;8.53;100.00;99446.38;1793860;80;21106;-59
2022/11/12 08:46:50;;;;;;;52.03;26.80;;;;;;;8.55;100.00;99447.77;1793476;80;20880;-59
2022/11/12 08:49:35;;;;;;;48.98;25.57;;;;;;;8.56;100.00;99448.06;1793448;80;21522;-59
2022/11/12 08:52:20;;;;;;;51.48;25.00;;;;;;;8.59;100.00;99456.11;1793614;80;20911;-60
2022/11/12 08:55:07;;;;;;;38.17;24.00;;;;;;;8.62;100.00;99454.30;1793655;80;20990;-61
2022/11/12 08:57:52;;;;;;;46.13;25.65;;;;;;;8.62;100.00;99454.30;1793522;80;21242;-60
2022/11/12 09:00:40;;;;;;;47.70;25.57;;;;;;;8.66;100.00;99466.11;1793410;80;21525;-61
2022/11/12 09:03:26;;;;;;;45.63;26.25;;;;;;;8.71;100.00;99463.53;1793525;80;20934;-60
2022/11/12 09:06:12;;;;;;;38.55;23.50;;;;;;;8.68;100.00;99464.82;1793383;80;20915;-59
2022/11/12 09:08:57;;;;;;;48.90;25.55;;;;;;;8.69;100.00;99467.77;1793661;80;20906;-60
2022/11/12 09:11:42;;;;;;;45.40;26.27;;;;;;;8.73;100.00;99470.25;1793655;80;21178;-59
2022/11/12 09:14:27;;;;;;;42.45;25.00;;;;;;;8.72;100.00;99468.63;1793580;80;20959;-60
2022/11/12 09:23:03;;;;;;;48.58;26.57;;;;;;;8.82;100.00;99463.97;1801390;79;20907;-60
2022/11/12 09:25:49;;;;;;;45.20;26.45;;;;;;;8.83;100.00;99466.94;1801383;79;21220;-60
2022/11/12 09:28:34;;;;;;;50.85;27.00;;;;;;;8.85;100.00;99470.98;1801412;79;26691;-61
2022/11/12 09:31:19;;;;;;;48.08;25.62;;;;;;;8.86;100.00;99466.42;1801504;79;20907;-61
2022/11/12 09:34:05;;;;;;;48.95;25.90;;;;;;;8.83;100.00;99476.29;1801478;79;20930;-62
2022/11/12 09:36:51;;;;;;;45.95;24.95;;;;;;;8.81;100.00;99473.02;1801400;79;20938;-62
2022/11/12 09:39:36;;;;;;;51.35;27.15;;;;;;;8.82;100.00;99474.13;1801500;79;21168;-60
2022/11/12 09:42:21;;;;;;;49.20;26.40;;;;;;;8.85;100.00;99474.18;1801293;79;20997;-60
2022/11/12 09:45:27;;;;;;;50.40;27.27;;;;;;;8.87;100.00;99470.73;1801345;79;21502;-60
2022/11/12 09:48:26;;;;;;;44.98;26.70;;;;;;;8.89;100.00;99469.95;1801449;79;20938;-60
2022/11/12 09:51:31;;;;;;;52.23;28.15;;;;;;;8.93;100.00;99458.53;1801348;79;20937;-60
2022/11/12 09:54:32;;;;;;;51.28;27.32;;;;;;;8.93;100.00;99455.86;1801508;79;21230;-59
2022/11/12 09:57:17;;;;;;;49.45;27.00;;;;;;;8.94;100.00;99449.48;1801256;79;20930;-61
2022/11/12 10:00:04;;;;;;;47.25;27.87;;;;;;;8.97;100.00;99456.20;1801474;79;20839;-60
2022/11/12 10:03:38;;;;;;;47.93;26.65;;;;;;;9.00;100.00;99461.59;1801336;79;20934;-61
2022/11/12 10:06:30;;;;;;;48.23;27.20;;;;;;;9.02;100.00;99450.91;1801349;79;21452;-61
2022/11/12 10:09:21;;;;;;;42.40;26.30;;;;;;;9.05;100.00;99450.42;1801284;79;21101;-60
2022/11/12 10:12:33;;;;;;;48.52;26.62;;;;;;;9.08;100.00;99455.81;1801274;79;20906;-60
2022/11/12 10:18:57;;;;;;;46.00;26.52;;;;;;;9.09;100.00;99451.55;1801315;79;21016;-60
2022/11/12 10:21:57;;;;;;;48.02;26.97;;;;;;;9.13;100.00;99455.89;1800499;79;20886;-60
2022/11/12 10:24:42;;;;;;;37.28;24.52;;;;;;;9.16;100.00;99458.86;1799367;79;21213;-60
2022/11/12 10:27:33;;;;;;;42.80;24.07;;;;;;;9.20;100.00;99446.65;1799396;79;21516;-60
2022/11/12 10:30:24;;;;;;;38.48;25.35;;;;;;;9.22;100.00;99441.86;1799375;79;20903;-60
2022/11/12 10:33:15;;;;;;;40.23;24.75;;;;;;;9.23;100.00;99446.14;1764216;81;20931;-59
2022/11/12 10:36:25;;;;;;;38.92;25.45;;;;;;;9.26;100.00;99442.98;1734028;82;20863;-61
2022/11/12 10:39:33;;;;;;;35.73;23.57;;;;;;;9.24;100.00;99442.42;1799332;79;21038;-60
2022/11/12 10:42:20;;;;;;;40.10;22.77;;;;;;;9.24;100.00;99442.42;1764285;81;20920;-60
2022/11/12 10:45:21;;;;;;;30.43;22.00;;;;;;;9.24;100.00;99444.28;1734010;82;20931;-60
2022/11/12 10:48:27;;;;;;;36.28;22.60;;;;;;;9.25;100.00;99440.04;1764315;81;20999;-61
2022/11/12 10:51:25;;;;;;;36.30;20.82;;;;;;;9.25;100.00;99435.22;1757584;81;20993;-61
2022/11/12 10:54:32;;;;;;;33.08;19.62;;;;;;;9.24;100.00;99434.40;1757580;81;21129;-60
2022/11/12 10:57:25;;;;;;;30.43;19.48;;;;;;;9.28;100.00;99447.55;1757561;81;21017;-59
2022/11/12 11:00:18;;;;;;;28.20;19.55;;;;;;;9.33;100.00;99439.59;1757568;81;20890;-60
2022/11/12 11:03:17;;;;;;;26.65;18.20;;;;;;;9.40;100.00;99437.55;1757421;81;21028;-60
2022/11/12 11:06:15;;;;;;;21.90;16.37;;;;;;;9.46;100.00;99437.10;1757634;81;20921;-60
2022/11/12 11:09:13;;;;;;;22.50;17.42;;;;;;;9.54;100.00;99437.47;1757574;81;21167;-61
2022/11/12 11:11:59;;;;;;;25.27;19.17;;;;;;;9.59;100.00;99436.72;1757505;81;20897;-59
2022/11/12 11:14:45;;;;;;;29.40;18.95;;;;;;;9.66;100.00;99430.66;1757569;81;20921;-60
2022/11/12 11:17:31;;;;;;;25.05;17.37;;;;;;;9.66;100.00;99428.53;1757603;81;20953;-58
2022/11/12 11:20:28;;;;;;;26.97;17.37;;;;;;;9.64;100.00;99432.25;1757560;81;20942;-58
2022/11/12 11:23:46;;;;;;;27.35;18.07;;;;;;;9.69;100.00;99429.34;1781317;80;20950;-59
2022/11/12 11:26:56;;;;;;;27.60;18.35;;;;;;;9.72;100.00;99427.52;1784772;80;20899;-61
2022/11/12 11:30:12;;;;;;;26.40;18.15;;;;;;;9.74;100.00;99421.39;1784868;80;20895;-60
2022/11/12 11:33:28;;;;;;;30.55;19.05;;;;;;;9.75;100.00;99421.68;1784689;80;20891;-59
2022/11/12 11:36:53;;;;;;;23.55;17.35;;;;;;;9.74;100.00;99412.84;1785048;80;21507;-60
2022/11/12 11:40:23;;;;;;;22.95;16.82;;;;;;;9.74;100.00;99414.70;1784721;80;21892;-60
2022/11/12 11:43:26;;;;;;;25.57;16.90;;;;;;;9.77;100.00;99408.86;1784803;80;20837;-59
2022/11/12 11:46:22;;;;;;;22.85;16.20;;;;;;;9.78;100.00;99412.61;1784858;80;20832;-59
2022/11/12 11:49:35;;;;;;;20.95;14.63;;;;;;;9.77;100.00;99411.01;1784809;80;20891;-61
2022/11/12 11:52:51;;;;;;;21.50;15.85;;;;;;;9.73;100.00;99417.11;1784827;80;20955;-61
2022/11/12 11:55:48;;;;;;;23.67;15.32;;;;;;;9.71;100.00;99407.16;1793875;80;21867;-59
2022/11/12 11:58:45;;;;;;;17.57;14.07;;;;;;;9.70;100.00;99402.89;1808641;78;21005;-62
2022/11/12 12:01:45;;;;;;;15.90;13.43;;;;;;;9.72;100.00;99407.45;1777055;80;21388;-60
2022/11/12 12:04:55;;;;;;;20.88;14.03;;;;;;;9.70;100.00;99405.05;1808664;79;20840;-61
2022/11/12 12:08:00;;;;;;;18.07;14.10;;;;;;;9.70;100.00;99402.89;1776842;80;20883;-60
2022/11/12 12:11:09;;;;;;;19.42;14.93;;;;;;;9.74;100.00;99399.98;1808654;79;21108;-59
2022/11/12 12:14:33;;;;;;;20.25;15.00;;;;;;;9.76;100.00;99393.84;1776758;80;20974;-61
2022/11/12 12:18:01;;;;;;;20.35;14.20;;;;;;;9.75;100.00;99401.06;1776687;80;20863;-60
2022/11/12 12:21:07;;;;;;;21.57;16.07;;;;;;;9.72;100.00;99391.41;1808810;79;21497;-59
2022/11/12 12:24:02;;;;;;;18.98;15.08;;;;;;;9.71;100.00;99389.77;1808660;79;20911;-59
2022/11/12 12:27:02;;;;;;;17.23;14.23;;;;;;;9.68;100.00;99392.97;1777083;80;21103;-59
2022/11/12 12:29:53;;;;;;;17.75;12.88;;;;;;;9.66;100.00;99401.78;1776719;80;20922;-60
2022/11/12 12:32:47;;;;;;;18.37;15.23;;;;;;;9.63;100.00;99393.17;1808757;79;20911;-59
2022/11/12 12:35:55;;;;;;;16.75;14.90;;;;;;;9.59;100.00;99396.59;1776981;80;20930;-60
2022/11/12 12:38:58;;;;;;;16.90;14.87;;;;;;;9.58;100.00;99395.81;1775386;80;21371;-60
2022/11/12 12:42:04;;;;;;;16.25;14.43;;;;;;;9.58;100.00;99394.47;1808681;79;21380;-59
2022/11/12 12:45:03;;;;;;;18.85;14.73;;;;;;;9.59;100.00;99408.11;1776934;80;20840;-60
2022/11/12 12:47:48;;;;;;;21.15;15.85;;;;;;;9.58;100.00;99403.84;1775549;80;21493;-60
2022/11/12 12:50:36;;;;;;;18.82;15.98;;;;;;;9.59;100.00;99410.78;1808778;79;21470;-59
2022/11/12 12:53:30;;;;;;;21.95;16.97;;;;;;;9.63;100.00;99407.09;1777112;80;21356;-59
2022/11/12 12:56:44;;;;;;;21.73;17.02;;;;;;;9.64;100.00;99406.84;1776951;80;21171;-60
2022/11/12 12:59:29;;;;;;;21.23;17.17;;;;;;;9.62;100.00;99404.95;1808962;79;21394;-60
2022/11/12 13:02:23;;;;;;;23.20;17.77;;;;;;;9.57;100.00;99406.73;1777098;80;25413;-59
2022/11/12 13:05:29;;;;;;;21.37;17.57;;;;;;;9.56;100.00;99409.16;1775313;80;20892;-60
2022/11/12 13:08:24;;;;;;;23.07;17.45;;;;;;;9.55;100.00;99412.35;1808995;79;20895;-58
2022/11/12 13:11:09;;;;;;;21.17;16.37;;;;;;;9.49;100.00;99405.30;1776949;80;21058;-60
2022/11/12 13:13:54;;;;;;;20.43;15.25;;;;;;;9.50;100.00;99408.80;1775430;80;20950;-60
2022/11/12 13:16:54;;;;;;;24.35;16.80;;;;;;;9.51;100.00;99411.23;1808857;79;20903;-60
2022/11/12 13:20:05;;;;;;;21.60;16.00;;;;;;;9.54;100.00;99410.72;1776916;80;20895;-60
2022/11/12 13:22:51;;;;;;;16.52;14.35;;;;;;;9.53;100.00;99409.13;1776917;80;21435;-60
2022/11/12 13:25:36;;;;;;;19.33;14.37;;;;;;;9.52;100.00;99404.81;1809076;79;21311;-61
2022/11/12 13:28:21;;;;;;;15.15;12.37;;;;;;;9.50;100.00;99410.95;1777031;80;20906;-59
2022/11/12 13:31:26;;;;;;;16.57;12.73;;;;;;;9.51;100.00;99414.44;1775522;80;20951;-59
2022/11/12 13:34:18;;;;;;;15.72;12.20;;;;;;;9.47;100.00;99411.95;1808988;79;21442;-60
2022/11/12 13:37:04;;;;;;;18.70;13.65;;;;;;;9.44;100.00;99411.92;1776956;80;21009;-61